createdAt,value
2022-12-26T00:00:54.686Z,28.03
2022-12-26T00:03:37.126Z,30.60
2022-12-26T00:06:06.186Z,33.73
2022-12-26T00:08:34.972Z,31.60
2022-12-26T00:11:04.750Z,28.53
2022-12-26T00:13:39.621Z,25.73
2022-12-26T00:16:11.136Z,27.73
2022-12-26T00:18:40.477Z,36.30
2022-12-26T00:21:10.722Z,31.00
2022-12-26T00:23:40.422Z,27.43
2022-12-26T00:26:12.021Z,27.47
2022-12-26T00:28:40.787Z,26.17
2022-12-26T00:31:11.809Z,36.23
2022-12-26T00:33:40.771Z,29.47
2022-12-26T00:36:11.324Z,26.17
2022-12-26T00:38:41.451Z,29.53
2022-12-26T00:41:13.989Z,30.57
2022-12-26T00:43:43.249Z,32.60
2022-12-26T00:46:12.211Z,26.03
2022-12-26T00:48:41.388Z,26.47
2022-12-26T00:51:09.885Z,29.13
2022-12-26T00:53:39.005Z,23.03
2022-12-26T00:56:08.265Z,26.13
2022-12-26T00:58:39.262Z,32.77
2022-12-26T01:01:09.975Z,34.80
2022-12-26T01:03:39.922Z,33.17
2022-12-26T01:06:08.546Z,36.27
2022-12-26T01:08:37.385Z,26.93
2022-12-26T01:11:08.096Z,22.30
2022-12-26T01:13:38.642Z,25.60
2022-12-26T01:16:08.261Z,25.33
2022-12-26T01:18:37.613Z,30.00
2022-12-26T01:21:08.243Z,21.17
2022-12-26T01:23:37.169Z,34.47
2022-12-26T01:26:14.899Z,34.80
2022-12-26T01:28:49.556Z,26.07
2022-12-26T01:31:18.894Z,25.57
2022-12-26T01:33:47.932Z,28.50
2022-12-26T01:36:17.330Z,30.43
2022-12-26T01:38:46.102Z,30.93
2022-12-26T01:41:21.312Z,23.73
2022-12-26T01:43:57.357Z,27.10
2022-12-26T01:46:29.933Z,31.63
2022-12-26T01:49:01.108Z,28.03
2022-12-26T01:51:34.979Z,30.90
2022-12-26T01:54:39.168Z,31.83
2022-12-26T01:56:58.776Z,25.10
2022-12-26T01:59:31.052Z,23.23
2022-12-26T02:02:00.846Z,27.13
2022-12-26T02:04:56.878Z,25.33
2022-12-26T02:07:25.798Z,29.63
2022-12-26T02:09:54.881Z,31.87
2022-12-26T02:12:36.484Z,23.10
2022-12-26T02:15:11.354Z,21.60
2022-12-26T02:17:40.459Z,28.87
2022-12-26T02:20:18.258Z,23.40
2022-12-26T02:23:25.198Z,20.83
2022-12-26T02:26:26.548Z,30.27
2022-12-26T02:29:31.241Z,29.53
2022-12-26T02:32:10.105Z,22.20
2022-12-26T02:34:46.786Z,24.70
2022-12-26T02:37:25.889Z,21.77
2022-12-26T02:40:14.184Z,17.47
2022-12-26T02:42:57.134Z,24.53
2022-12-26T02:45:51.665Z,30.97
2022-12-26T02:48:31.949Z,23.73
2022-12-26T02:51:25.911Z,21.53
2022-12-26T02:54:25.106Z,21.30
2022-12-26T02:57:16.222Z,19.23
2022-12-26T03:00:11.390Z,21.93
2022-12-26T03:03:03.324Z,20.50
2022-12-26T03:06:01.001Z,22.73
2022-12-26T03:08:50.457Z,24.67
2022-12-26T03:11:36.825Z,22.60
2022-12-26T03:14:13.525Z,29.30
2022-12-26T03:16:59.866Z,32.33
2022-12-26T03:19:30.701Z,24.60
2022-12-26T03:22:23.429Z,38.40
2022-12-26T03:25:07.924Z,23.80
2022-12-26T03:27:36.584Z,25.80
2022-12-26T03:30:28.690Z,30.53
2022-12-26T03:32:58.159Z,28.13
2022-12-26T03:35:30.362Z,26.53
2022-12-26T03:38:06.160Z,30.93
2022-12-26T03:41:02.306Z,32.67
2022-12-26T03:44:06.196Z,25.40
2022-12-26T03:47:02.982Z,28.80
2022-12-26T03:49:55.281Z,30.40
2022-12-26T03:52:48.469Z,32.43
2022-12-26T03:55:50.135Z,28.37
2022-12-26T03:58:41.824Z,26.90
2022-12-26T04:01:34.340Z,27.90
2022-12-26T04:04:22.606Z,31.83
2022-12-26T04:07:14.660Z,30.83
2022-12-26T04:10:03.843Z,33.33
2022-12-26T04:12:52.361Z,34.80
2022-12-26T04:15:43.748Z,24.60
2022-12-26T04:18:36.896Z,24.90
2022-12-26T04:21:31.105Z,28.63
2022-12-26T04:24:21.682Z,28.47
2022-12-26T04:27:11.834Z,24.20
2022-12-26T04:29:59.387Z,28.37
2022-12-26T04:32:53.014Z,25.77
2022-12-26T04:35:43.251Z,24.00
2022-12-26T04:38:35.238Z,25.83
2022-12-26T04:41:22.611Z,26.17
2022-12-26T04:44:05.779Z,28.17
2022-12-26T04:46:37.941Z,21.00
2022-12-26T04:49:25.524Z,22.77
2022-12-26T04:51:56.134Z,24.53
2022-12-26T04:54:25.227Z,30.77
2022-12-26T04:56:54.205Z,22.27
2022-12-26T04:59:23.057Z,20.27
2022-12-26T05:02:10.551Z,28.90
2022-12-26T05:04:56.398Z,18.97
2022-12-26T05:07:46.048Z,24.67
2022-12-26T05:10:18.613Z,26.47
2022-12-26T05:12:47.480Z,24.57
2022-12-26T05:15:16.514Z,26.43
2022-12-26T05:18:04.183Z,21.03
2022-12-26T05:20:50.613Z,22.80
2022-12-26T05:23:39.811Z,20.23
2022-12-26T05:26:30.193Z,22.50
2022-12-26T05:29:01.176Z,19.63
2022-12-26T05:31:34.958Z,24.57
2022-12-26T05:34:06.022Z,20.63
2022-12-26T05:36:39.125Z,17.70
2022-12-26T05:39:08.995Z,19.90
2022-12-26T05:41:38.173Z,19.47
2022-12-26T05:44:07.104Z,19.27
2022-12-26T05:46:35.912Z,20.27
2022-12-26T05:49:07.218Z,34.53
2022-12-26T05:51:36.003Z,22.07
2022-12-26T05:54:04.825Z,22.27
2022-12-26T05:56:33.125Z,19.57
2022-12-26T05:59:02.794Z,19.97
2022-12-26T06:01:31.927Z,22.10
2022-12-26T06:04:01.859Z,28.33
2022-12-26T06:06:31.780Z,21.57
2022-12-26T06:09:00.496Z,19.03
2022-12-26T06:11:28.858Z,23.20
2022-12-26T06:13:57.725Z,22.97
2022-12-26T06:16:26.188Z,22.97
2022-12-26T06:18:56.205Z,13.67
2022-12-26T06:21:25.469Z,21.50
2022-12-26T06:23:55.516Z,20.03
2022-12-26T06:26:24.040Z,20.63
2022-12-26T06:28:53.210Z,26.40
2022-12-26T06:31:23.711Z,17.93
2022-12-26T06:33:55.542Z,17.37
2022-12-26T06:36:25.954Z,24.33
2022-12-26T06:38:56.984Z,14.83
2022-12-26T06:41:26.260Z,16.33
2022-12-26T06:43:55.973Z,16.20
2022-12-26T06:46:26.443Z,21.77
2022-12-26T06:48:55.601Z,19.00
2022-12-26T06:51:26.997Z,18.97
2022-12-26T06:53:57.208Z,18.40
2022-12-26T06:56:27.638Z,16.50
2022-12-26T06:58:57.109Z,21.07
2022-12-26T07:01:26.929Z,17.47
2022-12-26T07:03:56.741Z,15.40
2022-12-26T07:06:27.684Z,24.27
2022-12-26T07:08:59.588Z,20.30
2022-12-26T07:11:31.500Z,17.27
2022-12-26T07:14:00.814Z,18.27
2022-12-26T07:16:29.793Z,14.33
2022-12-26T07:18:59.806Z,19.67
2022-12-26T07:21:31.276Z,18.43
2022-12-26T07:24:03.689Z,12.13
2022-12-26T07:26:32.163Z,13.53
2022-12-26T07:29:01.168Z,13.57
2022-12-26T07:31:29.707Z,14.00
2022-12-26T07:33:58.927Z,13.87
2022-12-26T07:36:27.779Z,12.97
2022-12-26T07:38:56.687Z,16.47
2022-12-26T07:41:44.273Z,14.37
2022-12-26T07:44:13.399Z,15.37
2022-12-26T07:46:42.046Z,16.97
2022-12-26T07:49:13.272Z,13.77
2022-12-26T07:51:42.925Z,15.07
2022-12-26T07:54:12.156Z,10.27
2022-12-26T07:56:42.528Z,9.77
2022-12-26T07:59:15.508Z,12.33
2022-12-26T08:01:44.506Z,13.07
2022-12-26T08:04:13.947Z,11.93
2022-12-26T08:06:42.637Z,12.70
2022-12-26T08:09:16.463Z,12.83
2022-12-26T08:11:46.301Z,14.20
2022-12-26T08:14:16.846Z,14.33
2022-12-26T08:16:51.325Z,11.07
2022-12-26T08:19:22.053Z,10.73
2022-12-26T08:21:50.582Z,9.40
2022-12-26T08:24:21.964Z,14.80
2022-12-26T08:26:51.830Z,11.70
2022-12-26T08:29:20.429Z,13.53
2022-12-26T08:31:48.992Z,9.60
2022-12-26T08:34:17.675Z,9.73
2022-12-26T08:36:46.770Z,8.60
2022-12-26T08:39:15.769Z,11.23
2022-12-26T08:41:44.343Z,9.63
2022-12-26T08:44:27.159Z,12.77
2022-12-26T08:46:56.618Z,11.43
2022-12-26T08:49:25.789Z,11.43
2022-12-26T08:51:54.278Z,13.93
2022-12-26T08:54:22.983Z,8.97
2022-12-26T08:56:51.789Z,9.47
2022-12-26T08:59:21.997Z,8.33
2022-12-26T09:01:50.975Z,6.93
2022-12-26T09:04:19.931Z,8.27
2022-12-26T09:06:48.356Z,9.97
2022-12-26T09:09:18.033Z,7.67
2022-12-26T09:11:46.373Z,9.00
2022-12-26T09:14:15.236Z,8.07
2022-12-26T09:16:50.463Z,9.40
2022-12-26T09:19:21.242Z,10.50
2022-12-26T09:22:12.016Z,7.37
2022-12-26T09:24:40.701Z,10.17
2022-12-26T09:27:10.042Z,9.47
2022-12-26T09:29:39.381Z,7.10
2022-12-26T09:32:09.311Z,8.23
2022-12-26T09:34:37.993Z,7.75
2022-12-26T09:37:06.239Z,7.60
2022-12-26T09:39:35.346Z,6.17
2022-12-26T09:42:14.402Z,5.67
2022-12-26T09:44:51.847Z,5.57
2022-12-26T09:47:32.774Z,6.70
2022-12-26T09:50:06.940Z,6.55
2022-12-26T09:52:42.898Z,5.37
2022-12-26T09:55:33.658Z,4.87
2022-12-26T09:58:09.807Z,7.77
2022-12-26T10:00:45.633Z,5.47
2022-12-26T10:03:15.377Z,5.07
2022-12-26T10:05:55.512Z,7.03
2022-12-26T10:08:33.502Z,6.85
2022-12-26T10:11:04.530Z,4.93
2022-12-26T10:13:40.184Z,6.57
2022-12-26T10:16:17.122Z,7.40
2022-12-26T10:18:58.011Z,7.23
2022-12-26T10:21:42.103Z,10.50
2022-12-26T10:24:16.897Z,5.77
2022-12-26T10:26:49.982Z,9.50
2022-12-26T10:29:24.576Z,6.32
2022-12-26T10:31:57.967Z,9.33
2022-12-26T10:34:32.141Z,5.90
2022-12-26T10:37:02.673Z,6.50
2022-12-26T10:39:36.177Z,4.70
2022-12-26T10:42:12.973Z,4.72
2022-12-26T10:44:41.816Z,4.13
2022-12-26T10:47:23.153Z,4.65
2022-12-26T10:49:53.771Z,9.75
2022-12-26T10:52:31.678Z,7.05
2022-12-26T10:55:31.235Z,8.48
2022-12-26T10:57:53.344Z,4.85
2022-12-26T11:00:23.958Z,4.80
2022-12-26T11:03:07.473Z,4.72
2022-12-26T11:08:40.870Z,5.13
2022-12-26T11:11:15.654Z,6.07
2022-12-26T11:13:49.769Z,4.82
2022-12-26T11:16:26.743Z,7.38
2022-12-26T11:18:56.135Z,8.07
2022-12-26T11:21:28.372Z,11.30
2022-12-26T11:24:17.327Z,6.67
2022-12-26T11:26:45.800Z,5.47
2022-12-26T11:29:16.485Z,5.95
2022-12-26T11:31:52.335Z,5.93
2022-12-26T11:34:35.191Z,7.43
2022-12-26T11:37:07.470Z,6.75
2022-12-26T11:39:38.445Z,5.55
2022-12-26T11:42:12.130Z,5.28
2022-12-26T11:44:45.744Z,4.82
2022-12-26T11:47:17.384Z,8.68
2022-12-26T11:49:55.962Z,8.82
2022-12-26T11:52:40.761Z,6.00
2022-12-26T11:55:29.420Z,7.15
2022-12-26T11:58:01.826Z,6.18
2022-12-26T12:00:31.197Z,5.22
2022-12-26T12:03:00.351Z,11.88
2022-12-26T12:05:46.117Z,5.38
2022-12-26T12:08:38.430Z,7.97
2022-12-26T12:11:23.264Z,6.90
2022-12-26T12:14:16.220Z,5.03
2022-12-26T12:16:56.623Z,8.20
2022-12-26T12:19:39.002Z,5.50
2022-12-26T12:22:31.982Z,4.88
2022-12-26T12:25:23.278Z,5.93
2022-12-26T12:28:01.080Z,4.73
2022-12-26T12:30:37.497Z,6.47
2022-12-26T12:33:24.687Z,5.35
2022-12-26T12:36:04.738Z,4.30
2022-12-26T12:38:37.920Z,3.70
2022-12-26T12:41:29.375Z,5.20
2022-12-26T12:44:06.059Z,2.58
2022-12-26T12:46:44.351Z,4.85
2022-12-26T12:49:28.374Z,6.27
2022-12-26T12:52:07.195Z,3.17
2022-12-26T12:55:21.170Z,3.47
2022-12-26T12:57:57.724Z,10.70
2022-12-26T13:00:29.569Z,5.97
2022-12-26T13:03:04.160Z,6.70
2022-12-26T13:05:45.859Z,6.47
2022-12-26T13:08:20.027Z,4.53
2022-12-26T13:10:53.020Z,5.63
2022-12-26T13:13:28.454Z,4.77
2022-12-26T13:16:04.287Z,7.73
2022-12-26T13:18:37.057Z,4.90
2022-12-26T13:21:08.854Z,7.80
2022-12-26T13:24:11.249Z,5.82
2022-12-26T13:26:43.815Z,8.68
2022-12-26T13:29:17.868Z,3.83
2022-12-26T13:31:47.406Z,3.87
2022-12-26T13:34:18.356Z,8.40
2022-12-26T13:36:49.105Z,5.83
2022-12-26T13:39:42.288Z,4.90
2022-12-26T13:42:52.928Z,6.38
2022-12-26T13:45:48.670Z,4.90
2022-12-26T13:48:57.075Z,4.47
2022-12-26T13:51:54.181Z,13.88
2022-12-26T13:54:24.703Z,6.78
2022-12-26T13:57:36.663Z,10.55
2022-12-26T14:00:18.569Z,8.80
2022-12-26T14:03:35.104Z,7.03
2022-12-26T14:06:37.926Z,5.10
2022-12-26T14:09:24.024Z,7.40
2022-12-26T14:12:40.230Z,9.33
2022-12-26T14:15:27.806Z,4.43
2022-12-26T14:18:21.468Z,8.45
2022-12-26T14:20:56.204Z,7.80
2022-12-26T14:23:37.954Z,5.80
2022-12-26T14:26:21.074Z,6.50
2022-12-26T14:28:59.921Z,9.40
2022-12-26T14:31:38.205Z,5.50
2022-12-26T14:34:22.426Z,6.17
2022-12-26T14:36:56.997Z,7.00
2022-12-26T14:39:37.713Z,7.63
2022-12-26T14:42:39.596Z,4.23
2022-12-26T14:45:36.736Z,7.07
2022-12-26T14:48:31.131Z,7.40
2022-12-26T14:51:33.189Z,7.50
2022-12-26T14:54:38.025Z,4.40
2022-12-26T14:57:44.441Z,6.47
2022-12-26T15:00:32.648Z,3.90
2022-12-26T15:03:39.735Z,5.23
2022-12-26T15:06:53.725Z,4.47
2022-12-26T15:09:54.420Z,2.27
2022-12-26T15:13:07.015Z,6.30
2022-12-26T15:15:46.799Z,4.75
2022-12-26T15:18:53.641Z,4.40
2022-12-26T15:21:52.122Z,5.40
2022-12-26T15:27:59.521Z,6.47
2022-12-26T15:30:48.517Z,3.90
2022-12-26T15:33:24.919Z,5.32
2022-12-26T15:36:03.935Z,5.70
2022-12-26T15:38:41.944Z,7.03
2022-12-26T15:41:17.144Z,7.17
2022-12-26T15:44:04.465Z,5.13
2022-12-26T15:46:42.399Z,6.63
2022-12-26T15:49:39.984Z,6.57
2022-12-26T15:52:16.911Z,8.20
2022-12-26T15:55:14.577Z,7.70
2022-12-26T15:57:52.094Z,7.90
2022-12-26T16:00:25.783Z,9.03
2022-12-26T16:03:11.699Z,11.07
2022-12-26T16:05:56.206Z,11.45
2022-12-26T16:08:46.922Z,8.33
2022-12-26T16:11:20.843Z,13.07
2022-12-26T16:13:52.141Z,12.93
2022-12-26T16:16:33.427Z,11.83
2022-12-26T16:19:19.485Z,13.87
2022-12-26T16:22:29.467Z,16.85
2022-12-26T16:24:57.902Z,17.90
2022-12-26T16:27:26.871Z,26.17
2022-12-26T16:29:58.124Z,26.93
2022-12-26T16:32:31.033Z,23.42
2022-12-26T16:35:01.113Z,19.63
2022-12-26T16:37:31.638Z,24.57
2022-12-26T16:40:09.114Z,29.33
2022-12-26T16:42:37.711Z,23.97
2022-12-26T16:45:19.026Z,14.77
2022-12-26T16:47:48.629Z,12.97
2022-12-26T16:50:20.807Z,14.20
2022-12-26T16:52:50.261Z,13.20
2022-12-26T16:55:34.212Z,10.88
2022-12-26T16:58:05.767Z,10.77
2022-12-26T17:00:35.020Z,9.07
2022-12-26T17:03:10.771Z,9.00
2022-12-26T17:05:43.999Z,7.47
2022-12-26T17:08:16.009Z,7.87
2022-12-26T17:10:49.932Z,7.10
2022-12-26T17:13:22.007Z,8.88
2022-12-26T17:15:54.900Z,9.03
2022-12-26T17:18:49.015Z,6.53
2022-12-26T17:21:27.279Z,5.57
2022-12-26T17:24:16.196Z,6.97
2022-12-26T17:26:45.310Z,7.37
2022-12-26T17:29:36.760Z,7.97
2022-12-26T17:32:09.550Z,5.33
2022-12-26T17:34:40.758Z,5.80
2022-12-26T17:37:20.124Z,4.17
2022-12-26T17:40:03.000Z,6.65
2022-12-26T17:42:38.827Z,6.38
2022-12-26T17:45:08.172Z,7.22
2022-12-26T17:47:36.489Z,5.73
2022-12-26T17:50:05.899Z,5.53
2022-12-26T17:52:36.065Z,4.05
2022-12-26T17:55:06.333Z,6.72
2022-12-26T17:57:34.774Z,4.97
2022-12-26T18:00:04.390Z,6.83
2022-12-26T18:02:32.909Z,7.22
2022-12-26T18:05:01.767Z,3.47
2022-12-26T18:07:31.752Z,9.53
2022-12-26T18:10:02.436Z,4.50
2022-12-26T18:12:30.924Z,10.68
2022-12-26T18:15:02.485Z,4.37
2022-12-26T18:17:34.373Z,6.97
2022-12-26T18:20:03.391Z,7.22
2022-12-26T18:22:31.865Z,8.73
2022-12-26T18:25:01.943Z,5.13
2022-12-26T18:27:32.230Z,8.13
2022-12-26T18:30:01.886Z,9.20
2022-12-26T18:32:32.622Z,13.90
2022-12-26T18:35:02.167Z,13.67
2022-12-26T18:37:31.629Z,16.52
2022-12-26T18:40:02.439Z,7.10
2022-12-26T18:42:30.796Z,14.23
2022-12-26T18:44:59.553Z,12.50
2022-12-26T18:47:27.890Z,7.32
2022-12-26T18:49:56.474Z,10.93
2022-12-26T18:52:24.745Z,6.60
2022-12-26T18:54:53.325Z,13.80
2022-12-26T18:57:23.048Z,8.98
2022-12-26T18:59:51.680Z,6.57
2022-12-26T19:02:20.654Z,7.93
2022-12-26T19:04:49.994Z,7.03
2022-12-26T19:07:22.196Z,13.97
2022-12-26T19:09:55.043Z,7.03
2022-12-26T19:12:25.458Z,11.87
2022-12-26T19:14:56.842Z,9.30
2022-12-26T19:17:25.198Z,8.47
2022-12-26T19:19:53.815Z,6.30
2022-12-26T19:22:22.309Z,13.07
2022-12-26T19:24:51.082Z,10.23
2022-12-26T19:27:19.581Z,6.40
2022-12-26T19:29:50.034Z,6.68
2022-12-26T19:32:18.454Z,7.93
2022-12-26T19:34:47.170Z,11.93
2022-12-26T19:37:18.057Z,11.90
2022-12-26T19:39:46.817Z,6.97
2022-12-26T19:42:15.263Z,13.85
2022-12-26T19:44:44.445Z,10.60
2022-12-26T19:47:14.238Z,8.00
2022-12-26T19:49:43.266Z,8.30
2022-12-26T19:52:12.389Z,7.73
2022-12-26T19:54:41.346Z,7.03
2022-12-26T19:57:09.923Z,9.97
2022-12-26T19:59:38.713Z,13.67
2022-12-26T20:02:07.344Z,9.17
2022-12-26T20:04:37.842Z,7.57
2022-12-26T20:07:06.810Z,7.20
2022-12-26T20:09:35.563Z,8.47
2022-12-26T20:12:04.314Z,13.53
2022-12-26T20:14:33.694Z,10.60
2022-12-26T20:17:05.570Z,5.93
2022-12-26T20:19:35.803Z,6.65
2022-12-26T20:22:06.582Z,6.30
2022-12-26T20:24:36.269Z,8.50
2022-12-26T20:27:05.421Z,6.87
2022-12-26T20:29:34.393Z,6.10
2022-12-26T20:32:02.845Z,9.98
2022-12-26T20:34:31.590Z,3.97
2022-12-26T20:36:59.972Z,6.75
2022-12-26T20:39:31.994Z,5.23
2022-12-26T20:42:01.355Z,5.60
2022-12-26T20:44:30.108Z,8.00
2022-12-26T20:46:58.453Z,4.50
2022-12-26T20:49:27.032Z,6.57
2022-12-26T20:51:55.658Z,8.88
2022-12-26T20:54:24.911Z,10.27
2022-12-26T20:56:54.647Z,6.67
2022-12-26T20:59:23.636Z,7.27
2022-12-26T21:01:52.107Z,7.20
2022-12-26T21:04:22.887Z,7.63
2022-12-26T21:06:52.022Z,5.87
2022-12-26T21:09:20.907Z,8.87
2022-12-26T21:11:49.268Z,8.23
2022-12-26T21:14:21.706Z,7.63
2022-12-26T21:16:52.422Z,7.90
2022-12-26T21:19:22.821Z,10.80
2022-12-26T21:21:53.030Z,7.27
2022-12-26T21:24:23.618Z,6.67
2022-12-26T21:26:51.940Z,7.37
2022-12-26T21:29:24.890Z,6.40
2022-12-26T21:31:54.020Z,6.13
2022-12-26T21:34:24.911Z,9.23
2022-12-26T21:37:10.907Z,10.67
2022-12-26T21:39:40.639Z,7.63
2022-12-26T21:42:10.185Z,8.37
2022-12-26T21:44:40.307Z,8.67
2022-12-26T21:47:09.272Z,13.63
2022-12-26T21:49:38.304Z,13.10
2022-12-26T21:52:07.892Z,8.40
2022-12-26T21:54:54.288Z,9.83
2022-12-26T21:57:23.160Z,9.57
2022-12-26T21:59:59.722Z,19.90
2022-12-26T22:02:48.254Z,9.70
2022-12-26T22:05:18.455Z,13.43
2022-12-26T22:07:47.707Z,10.17
2022-12-26T22:10:30.254Z,11.23
2022-12-26T22:12:58.773Z,8.30
2022-12-26T22:15:46.057Z,9.43
2022-12-26T22:18:14.556Z,13.53
2022-12-26T22:20:45.270Z,9.80
2022-12-26T22:23:14.293Z,8.03
2022-12-26T22:25:43.010Z,7.17
2022-12-26T22:28:11.596Z,11.30
2022-12-26T22:30:47.859Z,9.20
2022-12-26T22:33:16.576Z,11.33
2022-12-26T22:35:45.494Z,14.83
2022-12-26T22:38:14.196Z,13.53
2022-12-26T22:40:43.496Z,14.90
2022-12-26T22:43:11.765Z,12.17
2022-12-26T22:45:44.856Z,14.27
2022-12-26T22:48:13.385Z,11.13
2022-12-26T22:50:44.383Z,10.63
2022-12-26T22:53:13.446Z,7.70
2022-12-26T22:55:48.657Z,5.13
2022-12-26T22:58:18.493Z,7.63
2022-12-26T23:00:49.409Z,6.40
2022-12-26T23:03:18.117Z,7.13
2022-12-26T23:05:48.124Z,6.07
2022-12-26T23:08:19.423Z,15.43
2022-12-26T23:10:50.089Z,10.77
2022-12-26T23:13:19.155Z,13.73
2022-12-26T23:15:56.902Z,19.50
2022-12-26T23:18:53.055Z,19.43
2022-12-26T23:21:43.019Z,23.47
2022-12-26T23:24:16.495Z,23.97
2022-12-26T23:26:48.493Z,22.63
2022-12-26T23:29:36.095Z,20.60
2022-12-26T23:32:06.674Z,29.97
2022-12-26T23:34:35.649Z,26.07
2022-12-26T23:37:04.873Z,36.00
2022-12-26T23:39:33.503Z,19.40
2022-12-26T23:42:02.068Z,21.37
2022-12-26T23:44:30.542Z,24.33
2022-12-26T23:46:59.224Z,36.60
2022-12-26T23:49:28.908Z,49.50
2022-12-26T23:51:57.491Z,42.87
2022-12-26T23:54:26.067Z,30.43
2022-12-26T23:56:55.029Z,35.07
2022-12-26T23:59:23.508Z,28.60
